Terminal Aerodrome Forecast
Issued by NWS

Home | Current Version | Previous Version | Graphics & Text | Print | Product List | Glossary On
Versions: 1 2 3 4 5 6 7 8 9 10 11 12 13 14 15
000
FTUS43 KOAX 310500
TAFCDR
TAF
KCDR 310520Z 3106/0106 21013KT P6SM BKN100
     FM311300 31008KT P6SM -SHRA VCTS SCT060CB BKN150
     FM311600 30005KT 5SM -SHRA VCTS SCT040 BKN070CB
     FM010200 VRB05KT P6SM VCTS SCT070CB BKN150=

USA.gov is the U.S. government's official web portal to all federal, state and local government web resources and services.